createdAt,value
2017-02-04T00:00:01.661Z,6.1
2017-02-04T00:05:01.983Z,6.1
2017-02-04T00:10:01.746Z,6.1
2017-02-04T00:15:01.640Z,6.1
2017-02-04T00:20:01.996Z,6.1
2017-02-04T00:25:01.994Z,6.2
2017-02-04T00:30:01.787Z,6.1
2017-02-04T00:35:01.364Z,6.1
2017-02-04T00:40:01.227Z,6.1
2017-02-04T00:45:02.194Z,6.2
2017-02-04T00:50:01.454Z,6.2
2017-02-04T00:55:01.181Z,6.2
2017-02-04T01:00:01.943Z,6.2
2017-02-04T01:05:02.147Z,6.2
2017-02-04T01:10:01.825Z,6.2
2017-02-04T01:15:02.174Z,6.2
2017-02-04T01:20:01.490Z,6.2
2017-02-04T01:25:01.231Z,6.2
2017-02-04T01:30:01.436Z,6.3
2017-02-04T01:35:01.325Z,6.3
2017-02-04T01:40:02.147Z,6.3
2017-02-04T01:45:01.342Z,6.2
2017-02-04T01:50:01.740Z,6.3
2017-02-04T01:55:01.444Z,6.3
2017-02-04T02:00:01.233Z,6.3
2017-02-04T02:05:01.612Z,6.3
2017-02-04T02:10:01.363Z,6.3
2017-02-04T02:15:01.264Z,6.3
2017-02-04T02:20:01.611Z,6.3
2017-02-04T02:25:01.412Z,6.3
2017-02-04T02:30:01.288Z,6.3
2017-02-04T02:35:01.591Z,6.3
2017-02-04T02:40:01.386Z,6.3
2017-02-04T02:45:01.253Z,6.3
2017-02-04T02:50:01.183Z,6.3
2017-02-04T02:55:01.927Z,6.3
2017-02-04T03:00:01.698Z,6.3
2017-02-04T03:05:02.090Z,6.3
2017-02-04T03:10:02.093Z,6.3
2017-02-04T03:15:01.358Z,6.3
2017-02-04T03:20:01.733Z,6.4
2017-02-04T03:25:01.625Z,6.4
2017-02-04T03:30:01.855Z,6.4
2017-02-04T03:35:01.641Z,6.4
2017-02-04T03:40:01.348Z,6.4
2017-02-04T03:45:01.828Z,6.4
2017-02-04T03:50:01.325Z,6.4
2017-02-04T03:55:01.633Z,6.5
2017-02-04T04:00:02.010Z,6.5
2017-02-04T04:05:01.355Z,6.6
2017-02-04T04:10:01.263Z,6.6
2017-02-04T04:15:01.858Z,6.6
2017-02-04T04:20:02.062Z,6.7
2017-02-04T04:25:01.536Z,6.6
2017-02-04T04:30:01.606Z,6.7
2017-02-04T04:35:02.080Z,6.7
2017-02-04T04:40:01.820Z,6.7
2017-02-04T04:45:02.026Z,6.7
2017-02-04T04:50:02.092Z,6.6
2017-02-04T04:55:02.007Z,6.6
2017-02-04T05:00:02.072Z,6.6
2017-02-04T05:05:01.433Z,6.7
2017-02-04T05:10:01.269Z,6.6
2017-02-04T05:15:02.141Z,6.7
2017-02-04T05:20:01.369Z,6.7
2017-02-04T05:25:01.299Z,6.7
2017-02-04T05:30:01.188Z,6.7
2017-02-04T05:35:01.262Z,6.7
2017-02-04T05:40:01.284Z,6.7
2017-02-04T05:45:01.667Z,6.7
2017-02-04T05:50:01.804Z,6.7
2017-02-04T05:55:01.650Z,6.7
2017-02-04T06:00:01.660Z,6.7
2017-02-04T06:05:01.669Z,6.7
2017-02-04T06:10:01.418Z,6.6
2017-02-04T06:15:01.419Z,6.6
2017-02-04T06:20:01.450Z,6.6
2017-02-04T06:25:01.353Z,6.6
2017-02-04T06:30:01.400Z,6.6
2017-02-04T06:35:01.581Z,6.6
2017-02-04T06:40:01.757Z,6.6
2017-02-04T06:45:01.243Z,6.6
2017-02-04T06:50:01.640Z,6.6
2017-02-04T06:55:01.875Z,6.5
2017-02-04T07:00:02.074Z,6.5
2017-02-04T07:05:01.956Z,6.6
2017-02-04T07:10:02.103Z,6.6
2017-02-04T07:15:01.895Z,6.5
2017-02-04T07:20:01.723Z,6.5
2017-02-04T07:25:01.382Z,6.5
2017-02-04T07:30:01.902Z,6.6
2017-02-04T07:35:01.470Z,6.5
2017-02-04T07:40:01.690Z,6.6
2017-02-04T07:45:01.839Z,6.6
2017-02-04T07:50:01.499Z,6.6
2017-02-04T07:55:02.006Z,6.5
2017-02-04T08:00:01.280Z,6.6
2017-02-04T08:05:01.828Z,6.6
2017-02-04T08:10:01.576Z,6.5
2017-02-04T08:15:02.128Z,6.6
2017-02-04T08:20:01.243Z,6.7
2017-02-04T08:25:01.279Z,6.7
2017-02-04T08:30:01.489Z,6.7
2017-02-04T08:35:01.750Z,6.7
2017-02-04T08:40:01.884Z,6.8
2017-02-04T08:45:01.788Z,6.8
2017-02-04T08:50:02.176Z,6.8
2017-02-04T08:55:01.765Z,6.8
2017-02-04T09:00:02.001Z,6.8
2017-02-04T09:05:01.209Z,7
2017-02-04T09:10:02.100Z,7
2017-02-04T09:15:01.449Z,7
2017-02-04T09:20:01.241Z,7
2017-02-04T09:25:01.295Z,7.2
2017-02-04T09:30:01.790Z,7
2017-02-04T09:35:01.416Z,7.1
2017-02-04T09:40:01.412Z,7.1
2017-02-04T09:45:02.156Z,7.2
2017-02-04T09:50:01.738Z,7.2
2017-02-04T09:55:01.748Z,7.2
2017-02-04T10:00:02.249Z,7.4
2017-02-04T10:05:01.787Z,7.5
2017-02-04T10:10:01.823Z,7.6
2017-02-04T10:15:01.660Z,7.6
2017-02-04T10:20:02.120Z,7.6
2017-02-04T10:25:01.207Z,7.6
2017-02-04T10:30:01.459Z,7.6
2017-02-04T10:35:02.153Z,7.6
2017-02-04T10:40:01.886Z,7.7
2017-02-04T10:45:01.516Z,7.8
2017-02-04T10:50:01.311Z,7.8
2017-02-04T10:55:01.866Z,7.8
2017-02-04T11:00:01.443Z,8
2017-02-04T11:05:01.626Z,8
2017-02-04T11:10:01.703Z,8
2017-02-04T11:15:01.722Z,8
2017-02-04T11:20:01.456Z,8
2017-02-04T11:25:01.650Z,8.2
2017-02-04T11:30:01.823Z,8.2
2017-02-04T11:35:02.054Z,8.2
2017-02-04T11:40:01.981Z,8.2
2017-02-04T11:45:02.097Z,8.2
2017-02-04T11:50:02.214Z,8.2
2017-02-04T11:55:01.653Z,8.2
2017-02-04T12:00:01.636Z,8.2
2017-02-04T12:05:01.272Z,8.3
2017-02-04T12:10:02.010Z,8.3
2017-02-04T12:15:01.534Z,8.3
2017-02-04T12:20:01.861Z,8.4
2017-02-04T12:25:01.335Z,8.4
2017-02-04T12:30:01.618Z,8.4
2017-02-04T12:35:01.728Z,8.5
2017-02-04T12:40:02.095Z,8.5
2017-02-04T12:45:01.486Z,8.4
2017-02-04T12:50:01.914Z,8.4
2017-02-04T12:55:01.501Z,8.5
2017-02-04T13:00:01.507Z,8.5
2017-02-04T13:05:01.277Z,8.5
2017-02-04T13:10:01.930Z,8.5
2017-02-04T13:15:01.753Z,8.4
2017-02-04T13:20:02.017Z,8.4
2017-02-04T13:25:01.258Z,8.4
2017-02-04T13:30:02.092Z,8.4
2017-02-04T13:35:01.869Z,8.4
2017-02-04T13:40:01.537Z,8.4
2017-02-04T13:45:01.660Z,8.4
2017-02-04T13:50:01.975Z,8.4
2017-02-04T13:55:02.062Z,8.4
2017-02-04T14:00:01.975Z,8.4
2017-02-04T14:05:01.752Z,8.4
2017-02-04T14:10:01.751Z,8.3
2017-02-04T14:15:01.863Z,8.4
2017-02-04T14:20:01.699Z,8.4
2017-02-04T14:25:01.685Z,8.4
2017-02-04T14:30:01.278Z,8.3
2017-02-04T14:35:01.444Z,8.3
2017-02-04T14:40:01.491Z,8.3
2017-02-04T14:45:01.338Z,8.3
2017-02-04T14:50:01.990Z,8.3
2017-02-04T14:55:01.820Z,8.2
2017-02-04T15:00:01.534Z,8.2
2017-02-04T15:05:02.139Z,8.2
2017-02-04T15:10:01.834Z,8.2
2017-02-04T15:15:01.183Z,8.2
2017-02-04T15:20:01.682Z,8.2
2017-02-04T15:25:01.847Z,8.1
2017-02-04T15:30:01.456Z,8.1
2017-02-04T15:35:01.239Z,8.1
2017-02-04T15:40:01.898Z,8.1
2017-02-04T15:45:01.853Z,8.2
2017-02-04T15:50:01.289Z,8.1
2017-02-04T15:55:02.100Z,8.1
2017-02-04T16:00:01.156Z,8.1
2017-02-04T16:05:01.999Z,8
2017-02-04T16:10:01.892Z,8
2017-02-04T16:15:01.922Z,8
2017-02-04T16:20:01.313Z,8
2017-02-04T16:25:01.441Z,8
2017-02-04T16:30:02.051Z,8
2017-02-04T16:35:01.843Z,8
2017-02-04T16:40:01.419Z,8
2017-02-04T16:45:01.994Z,8
2017-02-04T16:50:01.580Z,8
2017-02-04T16:55:01.605Z,8
2017-02-04T17:00:01.235Z,8
2017-02-04T17:05:02.265Z,7.9
2017-02-04T17:10:01.943Z,8
2017-02-04T17:15:01.527Z,8
2017-02-04T17:20:01.863Z,8
2017-02-04T17:25:01.428Z,7.9
2017-02-04T17:30:02.042Z,7.9
2017-02-04T17:35:01.514Z,7.9
2017-02-04T17:40:02.048Z,7.8
2017-02-04T17:45:01.517Z,7.8
2017-02-04T17:50:01.915Z,7.8
2017-02-04T17:55:01.763Z,7.8
2017-02-04T18:00:01.663Z,7.8
2017-02-04T18:05:02.159Z,7.7
2017-02-04T18:10:01.352Z,7.7
2017-02-04T18:15:02.047Z,7.7
2017-02-04T18:20:02.154Z,7.7
2017-02-04T18:25:01.833Z,7.7
2017-02-04T18:30:01.645Z,7.6
2017-02-04T18:35:01.208Z,7.6
2017-02-04T18:40:01.530Z,7.6
2017-02-04T18:45:02.001Z,7.6
2017-02-04T18:50:01.917Z,7.6
2017-02-04T18:55:02.145Z,7.6
2017-02-04T19:00:01.581Z,7.6
2017-02-04T19:05:01.230Z,7.6
2017-02-04T19:10:01.425Z,7.6
2017-02-04T19:15:01.685Z,7.6
2017-02-04T19:20:02.025Z,7.6
2017-02-04T19:25:01.711Z,7.6
2017-02-04T19:30:01.617Z,7.6
2017-02-04T19:35:02.283Z,7.5
2017-02-04T19:40:01.509Z,7.5
2017-02-04T19:45:02.214Z,7.5
2017-02-04T19:50:01.449Z,7.5
2017-02-04T19:55:01.479Z,7.4
2017-02-04T20:00:01.469Z,7.4
2017-02-04T20:05:01.308Z,7.4
2017-02-04T20:10:02.206Z,7.3
2017-02-04T20:15:02.449Z,7.2
2017-02-04T20:20:01.837Z,7.2
2017-02-04T20:25:02.317Z,7.2
2017-02-04T20:30:01.691Z,7.2
2017-02-04T20:35:02.069Z,7.2
2017-02-04T20:40:01.680Z,7.2
2017-02-04T20:45:01.913Z,7.2
2017-02-04T20:50:02.183Z,7.2
2017-02-04T20:55:02.034Z,7.2
2017-02-04T21:00:02.176Z,7.2
2017-02-04T21:05:01.481Z,7.2
2017-02-04T21:10:01.893Z,7.2
2017-02-04T21:15:01.994Z,7.2
2017-02-04T21:20:02.149Z,7.2
2017-02-04T21:25:01.268Z,7.2
2017-02-04T21:30:01.961Z,7.2
2017-02-04T21:35:01.447Z,7.2
2017-02-04T21:40:01.573Z,7.1
2017-02-04T21:45:01.880Z,7.1
2017-02-04T21:50:01.680Z,7.1
2017-02-04T21:55:01.576Z,7
2017-02-04T22:00:01.266Z,7
2017-02-04T22:05:01.509Z,7
2017-02-04T22:10:01.316Z,7
2017-02-04T22:15:01.774Z,7
2017-02-04T22:20:01.524Z,7
2017-02-04T22:25:01.443Z,7
2017-02-04T22:30:01.840Z,7
2017-02-04T22:35:01.232Z,6.9
2017-02-04T22:40:02.127Z,6.8
2017-02-04T22:45:01.347Z,6.9
2017-02-04T22:50:02.078Z,6.9
2017-02-04T22:55:01.690Z,6.8
2017-02-04T23:00:02.321Z,6.8
2017-02-04T23:05:01.587Z,6.8
2017-02-04T23:10:01.281Z,6.8
2017-02-04T23:15:01.965Z,6.7
2017-02-04T23:20:02.168Z,6.7
2017-02-04T23:25:01.230Z,6.7
2017-02-04T23:30:01.604Z,6.7
2017-02-04T23:35:02.134Z,6.7
2017-02-04T23:40:01.417Z,6.6
2017-02-04T23:45:01.756Z,6.6
2017-02-04T23:50:01.355Z,6.6
2017-02-04T23:55:01.390Z,6.6
